Time;durP1;ratioP1;P1;durP2;ratioP2;P2;SDS_P1;SDS_P2;PMS_P1;PMS_P2;Temp;Humidity;BMP_temperature;BMP_pressure;BME280_temperature;BME280_humidity;BME280_pressure;Samples;Min_cycle;Max_cycle;Signal;HPM_P1;HPM_P2
2023/08/31 00:04:28;;;;;;;13.70;13.20;;;;;;;-141.02;100.00;39595.03;5113630;28;20675;-63
2023/08/31 00:06:56;;;;;;;13.70;13.20;;;;;;;-141.02;100.00;39596.97;5113397;28;20185;-59
2023/08/31 00:09:25;;;;;;;13.27;12.77;;;;;;;-141.02;100.00;39589.28;5113235;28;20645;-59
2023/08/31 00:12:36;;;;;;;13.23;12.82;;;;;;;-141.02;100.00;39583.53;5113271;28;20690;-65
2023/08/31 00:19:01;;;;;;;13.68;13.18;;;;;;;-141.02;100.00;39564.34;5011714;28;20192;-61
2023/08/31 00:21:28;;;;;;;13.65;13.18;;;;;;;-141.02;100.00;39591.22;4987507;28;20236;-58
2023/08/31 00:23:55;;;;;;;13.38;12.98;;;;;;;-141.02;100.00;39585.44;5010852;28;20200;-65
2023/08/31 00:26:30;;;;;;;14.65;14.15;;;;;;;-141.02;100.00;39635.31;5010963;28;20196;-64
2023/08/31 00:29:25;;;;;;;15.25;14.75;;;;;;;-141.02;100.00;39623.81;5010834;28;20196;-65
2023/08/31 00:35:45;;;;;;;14.65;14.15;;;;;;;-141.02;100.00;39667.94;5010700;28;20191;-65
2023/08/31 00:38:12;;;;;;;14.70;14.20;;;;;;;-141.02;100.00;39650.66;4997522;28;20700;-59
2023/08/31 00:40:45;;;;;;;14.88;14.38;;;;;;;-141.02;100.00;39700.53;5010689;28;20291;-66
2023/08/31 00:43:15;;;;;;;14.77;14.18;;;;;;;-141.02;100.00;39681.34;5010487;28;20587;-59
2023/08/31 00:45:46;;;;;;;14.85;14.25;;;;;;;-141.02;100.00;39677.50;5010846;28;20196;-64
2023/08/31 00:48:16;;;;;;;14.38;13.88;;;;;;;-141.02;100.00;39639.16;5010392;28;20344;-60
2023/08/31 00:50:43;;;;;;;14.45;13.95;;;;;;;-141.02;100.00;39669.84;5012004;28;20252;-59
2023/08/31 00:53:10;;;;;;;14.75;14.15;;;;;;;-141.02;100.00;39675.59;5091775;28;20189;-66
2023/08/31 00:55:38;;;;;;;14.50;14.00;;;;;;;-141.02;100.00;39750.41;5112570;28;20232;-65
2023/08/31 00:58:21;;;;;;;14.68;14.18;;;;;;;-141.02;100.00;39690.94;5112549;28;20201;-59
2023/08/31 01:01:01;;;;;;;14.57;14.07;;;;;;;-141.02;100.00;39721.63;5112880;28;20201;-59
2023/08/31 01:03:36;;;;;;;14.55;14.05;;;;;;;-141.02;100.00;39708.19;5112441;28;20275;-58
2023/08/31 01:06:12;;;;;;;14.85;14.25;;;;;;;-141.02;100.00;39731.22;5112650;28;20603;-58
2023/08/31 01:08:44;;;;;;;14.55;14.05;;;;;;;-141.02;100.00;39723.53;5112552;28;20735;-59
2023/08/31 01:11:20;;;;;;;15.30;14.70;;;;;;;-141.02;100.00;39754.22;5112719;28;20585;-59
2023/08/31 01:13:54;;;;;;;14.48;13.98;;;;;;;-141.02;100.00;39754.22;5112382;28;20693;-58
2023/08/31 01:16:24;;;;;;;14.50;14.00;;;;;;;-141.02;100.00;39754.22;5112342;28;20198;-58
2023/08/31 01:18:53;;;;;;;13.38;12.88;;;;;;;-141.02;100.00;39735.06;5112767;28;20243;-58
2023/08/31 01:21:26;;;;;;;13.45;12.95;;;;;;;-141.02;100.00;39681.34;5112733;28;20197;-59
2023/08/31 01:23:56;;;;;;;13.35;12.85;;;;;;;-141.02;100.00;39715.88;5113228;28;20267;-59
2023/08/31 01:26:23;;;;;;;13.70;13.20;;;;;;;-141.02;100.00;39715.88;5112253;28;20233;-58
2023/08/31 01:28:51;;;;;;;14.10;13.60;;;;;;;-141.02;100.00;39781.09;5112582;28;20273;-66
2023/08/31 01:31:20;;;;;;;14.40;13.90;;;;;;;-141.02;100.00;39779.16;5112452;28;20228;-65
2023/08/31 01:34:36;;;;;;;14.90;14.30;;;;;;;-141.02;99.65;39809.84;5112225;28;20189;-59
2023/08/31 01:37:22;;;;;;;16.05;15.45;;;;;;;-141.02;98.23;39825.19;5112474;28;20201;-59
2023/08/31 01:39:57;;;;;;;16.50;15.80;;;;;;;-141.02;96.77;39834.78;5112212;28;20284;-58
2023/08/31 01:42:27;;;;;;;16.02;15.43;;;;;;;-141.02;96.23;39880.81;5112457;28;20215;-59
2023/08/31 01:44:56;;;;;;;16.23;15.52;;;;;;;-141.02;96.63;39873.16;5112213;28;20189;-60
2023/08/31 01:47:26;;;;;;;16.55;15.85;;;;;;;-141.02;96.15;39900.00;5112143;28;20197;-59
2023/08/31 01:49:53;;;;;;;16.95;16.25;;;;;;;-141.02;95.47;39909.59;5112394;28;20303;-66
2023/08/31 01:52:20;;;;;;;16.10;15.40;;;;;;;-141.02;95.94;39903.84;5112355;28;20197;-58
2023/08/31 01:54:47;;;;;;;16.00;15.30;;;;;;;-141.02;95.85;39926.84;5112048;28;20588;-58
2023/08/31 01:57:15;;;;;;;16.17;15.48;;;;;;;-141.02;95.57;39919.19;5112008;28;20284;-59
2023/08/31 01:59:43;;;;;;;17.17;16.48;;;;;;;-141.02;95.34;39949.88;5112262;28;20221;-59
2023/08/31 02:02:20;;;;;;;17.33;16.63;;;;;;;-141.02;94.62;39957.53;5112039;28;20202;-59
2023/08/31 02:04:47;;;;;;;17.15;16.45;;;;;;;-141.02;94.40;39938.38;5111907;28;20249;-66
2023/08/31 02:07:14;;;;;;;17.33;16.63;;;;;;;-141.02;94.86;39974.81;5112007;28;20193;-59
2023/08/31 02:09:51;;;;;;;16.58;15.88;;;;;;;-141.02;94.30;39969.06;5111869;28;20201;-58
2023/08/31 02:12:26;;;;;;;16.58;15.88;;;;;;;-141.02;93.98;39984.41;5113050;28;20197;-58
2023/08/31 02:14:53;;;;;;;16.85;16.15;;;;;;;-141.02;93.04;39978.66;5114337;28;20188;-58
2023/08/31 02:17:20;;;;;;;16.67;15.98;;;;;;;-141.02;93.58;39980.56;5115391;28;20827;-66
2023/08/31 02:19:47;;;;;;;16.92;16.23;;;;;;;-141.02;93.81;40003.59;5115785;27;20228;-66
2023/08/31 02:22:14;;;;;;;17.02;16.33;;;;;;;-141.02;94.26;39990.16;5115479;28;20233;-59
2023/08/31 02:25:03;;;;;;;16.67;15.98;;;;;;;-141.02;95.12;39984.41;5115440;28;20207;-66
2023/08/31 02:27:31;;;;;;;16.52;15.82;;;;;;;-141.02;95.10;40003.59;5115428;28;20236;-58
2023/08/31 02:29:58;;;;;;;15.73;15.07;;;;;;;-141.02;95.25;39995.91;5115518;28;20554;-59
2023/08/31 02:35:47;;;;;;;15.95;15.35;;;;;;;-141.02;96.97;40028.50;5115330;28;20217;-58
2023/08/31 02:38:14;;;;;;;15.60;15.00;;;;;;;-141.02;97.97;40018.94;5115404;28;20279;-58
2023/08/31 02:40:40;;;;;;;14.98;14.38;;;;;;;-141.02;100.00;39972.88;5115407;28;20271;-66
2023/08/31 02:43:09;;;;;;;14.85;14.25;;;;;;;-141.02;100.00;40003.59;5115374;28;20193;-59
2023/08/31 02:46:13;;;;;;;14.80;14.20;;;;;;;-141.02;100.00;39974.81;5115009;28;20197;-65
2023/08/31 02:48:40;;;;;;;15.00;14.50;;;;;;;-141.02;100.00;39990.16;5114984;28;20199;-65
2023/08/31 02:51:07;;;;;;;14.60;14.10;;;;;;;-141.02;100.00;39961.38;5114877;28;20228;-58
2023/08/31 02:53:34;;;;;;;13.80;13.30;;;;;;;-141.02;100.00;39961.38;5114826;28;20284;-65
2023/08/31 02:56:01;;;;;;;13.60;13.10;;;;;;;-141.02;100.00;39969.06;5115156;28;20262;-65
2023/08/31 02:58:32;;;;;;;13.52;13.02;;;;;;;-141.02;100.00;39976.72;5115077;28;20632;-59
2023/08/31 03:01:09;;;;;;;13.23;12.73;;;;;;;-141.02;100.00;39946.03;5115483;28;20204;-64
2023/08/31 03:03:36;;;;;;;13.10;12.60;;;;;;;-141.02;100.00;39949.88;5114674;28;20188;-59
2023/08/31 03:06:46;;;;;;;13.02;12.52;;;;;;;-141.02;100.00;39917.25;5114672;28;20643;-59
2023/08/31 03:09:13;;;;;;;12.85;12.35;;;;;;;-141.02;100.00;39926.84;5114583;28;20200;-59
2023/08/31 03:11:40;;;;;;;12.07;11.68;;;;;;;-141.02;100.00;39869.31;5114709;28;20319;-61
2023/08/31 03:14:09;;;;;;;11.90;11.50;;;;;;;-141.02;100.00;39834.78;5114808;28;20198;-58
2023/08/31 03:16:36;;;;;;;11.60;11.20;;;;;;;-141.02;100.00;39790.69;5114186;28;20229;-59
2023/08/31 03:19:03;;;;;;;12.07;11.68;;;;;;;-141.02;100.00;39796.44;5114678;28;20197;-59
2023/08/31 03:21:30;;;;;;;11.98;11.57;;;;;;;-141.02;100.00;39821.38;5114629;28;20197;-58
2023/08/31 03:23:57;;;;;;;12.05;11.65;;;;;;;-141.02;100.00;39827.13;5114247;28;20667;-59
2023/08/31 03:26:24;;;;;;;12.55;12.15;;;;;;;-141.02;100.00;39852.06;5114199;28;20197;-62
2023/08/31 03:28:51;;;;;;;12.65;12.25;;;;;;;-141.02;100.00;39859.72;5114195;28;20190;-58
2023/08/31 03:31:19;;;;;;;13.00;12.50;;;;;;;-141.02;100.00;39894.25;5114322;28;20235;-59
2023/08/31 03:33:47;;;;;;;12.85;12.35;;;;;;;-141.02;100.00;39926.84;5114165;28;20570;-58
2023/08/31 03:36:14;;;;;;;12.88;12.48;;;;;;;-141.02;100.00;40030.44;5114311;28;20192;-59
2023/08/31 03:38:41;;;;;;;12.48;12.07;;;;;;;-141.02;100.00;40287.47;5114288;28;20276;-64
2023/08/31 03:41:08;;;;;;;12.60;12.20;;;;;;;-141.02;100.00;40567.56;5113909;28;20199;-59
2023/08/31 03:43:35;;;;;;;12.80;12.40;;;;;;;-141.02;100.00;40651.97;5114208;28;20193;-59
2023/08/31 03:46:02;;;;;;;12.77;12.38;;;;;;;-141.02;100.00;40682.66;5113889;28;20193;-63
2023/08/31 03:48:30;;;;;;;12.52;12.13;;;;;;;-141.02;100.00;40717.19;5113779;28;20239;-58
2023/08/31 03:50:57;;;;;;;12.45;12.05;;;;;;;-141.02;100.00;40717.19;5114000;28;20255;-58
2023/08/31 03:53:25;;;;;;;12.60;12.18;;;;;;;-141.02;100.00;40767.09;5113737;28;20223;-60
2023/08/31 03:55:52;;;;;;;12.80;12.40;;;;;;;-141.02;100.00;40755.56;5113699;28;20189;-66
2023/08/31 03:58:19;;;;;;;13.30;12.80;;;;;;;-141.02;100.00;40769.00;5113980;28;20264;-65
2023/08/31 04:00:46;;;;;;;12.48;12.07;;;;;;;-141.02;100.00;40801.63;5113874;28;20224;-58
2023/08/31 04:03:13;;;;;;;13.00;12.50;;;;;;;-141.02;100.00;40830.41;5113963;28;20253;-58
2023/08/31 04:05:41;;;;;;;12.77;12.38;;;;;;;-141.02;100.00;40847.66;5113794;28;20197;-60
2023/08/31 04:08:09;;;;;;;13.40;12.90;;;;;;;-141.02;100.00;40843.81;5113762;28;20614;-66
2023/08/31 04:10:36;;;;;;;12.48;12.07;;;;;;;-141.02;100.00;40886.03;5113307;28;20224;-65
2023/08/31 04:13:03;;;;;;;12.48;12.07;;;;;;;-141.02;100.00;41020.34;5113392;28;20635;-58
2023/08/31 04:15:30;;;;;;;12.10;11.70;;;;;;;-141.02;100.00;41070.22;5113692;28;20197;-58
2023/08/31 04:17:57;;;;;;;13.70;13.20;;;;;;;-141.02;100.00;41068.31;5113062;28;20316;-58
2023/08/31 04:20:24;;;;;;;13.60;13.10;;;;;;;-141.02;100.00;41058.72;5113560;28;20276;-63
2023/08/31 04:22:53;;;;;;;13.65;13.15;;;;;;;-141.02;100.00;41135.47;5113432;28;20200;-58
2023/08/31 04:25:20;;;;;;;14.27;13.68;;;;;;;-141.02;100.00;41206.47;5113921;28;20279;-61
2023/08/31 04:27:47;;;;;;;14.55;13.95;;;;;;;-141.02;100.00;41235.25;5113456;28;20193;-58
2023/08/31 04:30:14;;;;;;;14.45;13.85;;;;;;;-141.02;100.00;41285.13;5112989;28;20280;-58
2023/08/31 04:32:42;;;;;;;15.02;14.40;;;;;;;-141.02;100.00;41319.69;5113285;28;20225;-58
2023/08/31 04:35:09;;;;;;;14.80;14.20;;;;;;;-141.02;99.75;41352.31;5114092;28;20215;-65
2023/08/31 04:37:36;;;;;;;15.10;14.50;;;;;;;-141.02;97.39;41335.03;5112483;28;20189;-58
2023/08/31 04:40:08;;;;;;;15.10;14.50;;;;;;;-141.02;97.63;41379.16;5113797;28;20539;-59
2023/08/31 04:42:35;;;;;;;15.25;14.65;;;;;;;-141.02;98.57;41367.66;5112928;28;20201;-59
2023/08/31 04:45:02;;;;;;;15.50;14.80;;;;;;;-141.02;96.00;41365.72;5113189;28;20204;-58
2023/08/31 04:47:29;;;;;;;15.18;14.50;;;;;;;-141.02;98.78;41404.09;5112738;28;20288;-58
2023/08/31 04:49:57;;;;;;;15.25;14.65;;;;;;;-141.02;100.00;41384.91;5113070;28;20232;-59
2023/08/31 04:52:23;;;;;;;15.20;14.60;;;;;;;-141.02;99.10;41388.75;5112609;28;20648;-58
2023/08/31 04:54:50;;;;;;;15.00;14.40;;;;;;;-141.02;98.61;41392.59;5112760;28;20205;-64
2023/08/31 04:57:19;;;;;;;15.15;14.55;;;;;;;-141.02;98.20;41406.03;5112639;28;20287;-58
2023/08/31 04:59:46;;;;;;;15.10;14.50;;;;;;;-141.02;97.86;41354.22;5112560;28;20197;-59
2023/08/31 05:02:13;;;;;;;15.13;14.52;;;;;;;-141.02;99.08;41323.50;5112912;28;20275;-65
2023/08/31 05:04:40;;;;;;;15.07;14.48;;;;;;;-141.02;98.46;41327.34;5112521;28;20229;-59
2023/08/31 05:07:07;;;;;;;14.95;14.35;;;;;;;-141.02;99.50;41313.91;5112594;28;20195;-65
2023/08/31 05:09:34;;;;;;;14.60;14.00;;;;;;;-141.02;100.00;41288.97;5112801;28;20193;-59
2023/08/31 05:12:02;;;;;;;14.48;13.88;;;;;;;-141.02;100.00;41256.34;5112763;28;20256;-66
2023/08/31 05:14:30;;;;;;;13.77;13.27;;;;;;;-141.02;100.00;41260.19;5112829;28;20196;-64
2023/08/31 05:16:57;;;;;;;13.30;12.80;;;;;;;-141.02;100.00;41254.44;5112241;28;20225;-59
2023/08/31 05:19:24;;;;;;;13.15;12.65;;;;;;;-141.02;100.00;41256.34;5112406;28;20856;-58
2023/08/31 05:21:51;;;;;;;12.82;12.43;;;;;;;-141.02;100.00;41248.69;5112415;28;20196;-65
2023/08/31 05:24:18;;;;;;;13.10;12.60;;;;;;;-141.02;100.00;41212.22;5112671;28;20221;-58
2023/08/31 05:26:45;;;;;;;13.02;12.52;;;;;;;-141.02;100.00;41231.41;5112700;28;20323;-58
2023/08/31 05:29:12;;;;;;;12.70;12.30;;;;;;;-141.02;100.00;41231.41;5112287;28;20288;-58
2023/08/31 05:31:41;;;;;;;12.90;12.50;;;;;;;-141.02;100.00;41212.22;5112230;28;20648;-65
2023/08/31 05:34:08;;;;;;;12.82;12.43;;;;;;;-141.02;100.00;41219.91;5112336;28;20239;-65
2023/08/31 05:36:35;;;;;;;12.65;12.25;;;;;;;-141.02;100.00;41183.44;5112298;28;20244;-65
2023/08/31 05:39:02;;;;;;;12.13;11.73;;;;;;;-141.02;100.00;41194.94;5112225;28;20284;-59
2023/08/31 05:41:29;;;;;;;12.05;11.65;;;;;;;-141.02;100.00;41242.91;5112495;28;20197;-58
2023/08/31 05:43:55;;;;;;;12.23;11.82;;;;;;;-141.02;100.00;41308.16;5112532;28;20283;-59
2023/08/31 05:46:22;;;;;;;12.13;11.73;;;;;;;-141.02;100.00;41204.53;5112223;28;20280;-65
2023/08/31 05:48:52;;;;;;;11.88;11.48;;;;;;;-141.02;100.00;41185.34;5113086;28;20196;-58
2023/08/31 05:51:19;;;;;;;12.40;12.00;;;;;;;-141.02;100.00;41223.72;5116338;28;20224;-61
2023/08/31 05:53:46;;;;;;;12.63;12.23;;;;;;;-141.02;100.00;41275.53;5116013;28;20224;-58
2023/08/31 05:56:13;;;;;;;12.65;12.25;;;;;;;-141.02;100.00;41277.47;5116105;28;20674;-65
2023/08/31 05:58:40;;;;;;;12.73;12.32;;;;;;;-141.02;100.00;41294.72;5116319;28;20278;-58
2023/08/31 06:01:07;;;;;;;13.00;12.60;;;;;;;-141.02;100.00;41365.72;5115970;28;20235;-58
2023/08/31 06:03:34;;;;;;;12.63;12.23;;;;;;;-141.02;100.00;41358.06;5116181;28;20193;-58
2023/08/31 06:06:03;;;;;;;12.95;12.52;;;;;;;-141.02;100.00;41300.50;5115852;28;20203;-65
2023/08/31 06:08:30;;;;;;;13.50;13.00;;;;;;;-141.02;100.00;41279.38;5115856;28;20209;-58
2023/08/31 06:10:57;;;;;;;13.82;13.32;;;;;;;-141.02;100.00;40958.94;5115957;28;20197;-59
2023/08/31 06:13:24;;;;;;;14.38;13.88;;;;;;;-141.02;99.79;41273.63;5115768;28;20686;-58
2023/08/31 06:15:51;;;;;;;14.63;14.13;;;;;;;-141.02;98.85;41294.72;5115972;28;20284;-59
2023/08/31 06:18:18;;;;;;;15.73;15.13;;;;;;;-141.02;96.92;41290.91;5115501;28;20221;-66
2023/08/31 06:20:45;;;;;;;15.00;14.40;;;;;;;-141.02;97.60;41281.31;5115535;28;20651;-58
2023/08/31 06:23:13;;;;;;;14.80;14.20;;;;;;;-141.02;97.96;41310.09;5115491;28;20285;-65
2023/08/31 06:25:40;;;;;;;14.73;14.13;;;;;;;-141.02;96.59;41327.34;5115823;28;20279;-65
2023/08/31 06:28:08;;;;;;;15.10;14.50;;;;;;;-141.02;94.39;41296.66;5115469;28;20280;-59
2023/08/31 06:30:35;;;;;;;15.07;14.48;;;;;;;-141.02;94.37;41273.63;5115399;28;20211;-58
2023/08/31 06:33:02;;;;;;;15.32;14.73;;;;;;;-141.02;93.36;41258.28;5115227;28;20225;-58
2023/08/31 06:35:29;;;;;;;15.93;15.23;;;;;;;-141.02;90.34;41285.13;5115297;28;20201;-59
2023/08/31 06:37:56;;;;;;;16.35;15.65;;;;;;;-141.02;90.31;41288.97;5115270;28;20288;-58
2023/08/31 06:40:25;;;;;;;16.17;15.48;;;;;;;-141.02;89.68;41254.44;5115518;28;20275;-65
2023/08/31 06:42:52;;;;;;;16.27;15.57;;;;;;;-141.02;89.15;41229.50;5115108;28;20204;-59
2023/08/31 06:45:19;;;;;;;16.83;16.13;;;;;;;-141.02;88.07;41248.69;5115342;28;20192;-58
2023/08/31 06:47:46;;;;;;;16.40;15.70;;;;;;;-141.02;90.54;41237.16;5115360;28;20272;-59
2023/08/31 06:50:13;;;;;;;16.65;15.95;;;;;;;-141.02;88.11;41231.41;5115013;28;20634;-58
2023/08/31 06:52:41;;;;;;;16.83;16.13;;;;;;;-141.02;88.55;41273.63;5114927;28;20321;-65
2023/08/31 06:55:10;;;;;;;16.90;16.20;;;;;;;-141.02;88.95;41285.13;5114937;28;20212;-58
2023/08/31 06:57:39;;;;;;;16.70;16.00;;;;;;;-141.02;88.51;41269.78;5115124;28;20189;-58
2023/08/31 07:00:08;;;;;;;16.92;16.23;;;;;;;-141.02;87.41;41260.19;5114770;28;20193;-58
2023/08/31 07:02:35;;;;;;;16.55;15.85;;;;;;;-141.02;84.81;41273.63;5114734;28;20720;-58
2023/08/31 07:05:03;;;;;;;16.77;16.08;;;;;;;-141.02;84.52;41335.03;5115440;28;20269;-58
2023/08/31 07:07:30;;;;;;;17.13;16.42;;;;;;;-141.02;84.78;41340.78;5114977;28;20197;-58
2023/08/31 07:09:57;;;;;;;16.98;16.27;;;;;;;-141.02;82.98;41367.66;5114637;28;20193;-58
2023/08/31 07:12:24;;;;;;;16.95;16.25;;;;;;;-141.02;80.93;41421.38;5114832;27;20268;-66
2023/08/31 07:14:53;;;;;;;16.60;15.90;;;;;;;-141.02;79.62;41448.25;5114454;28;20643;-58
2023/08/31 07:17:20;;;;;;;17.27;16.58;;;;;;;-141.02;78.94;41450.16;5114437;28;20229;-58
2023/08/31 07:19:47;;;;;;;17.08;16.38;;;;;;;-141.02;79.35;41500.06;5114718;28;20277;-59
2023/08/31 07:22:14;;;;;;;17.40;16.60;;;;;;;-141.02;75.03;41500.06;5114734;28;20605;-68
2023/08/31 07:24:41;;;;;;;17.23;16.48;;;;;;;-141.02;76.94;41553.78;5114512;28;20197;-58
2023/08/31 07:27:08;;;;;;;18.30;17.50;;;;;;;-141.02;75.29;41611.34;5114220;28;20228;-59
2023/08/31 07:29:35;;;;;;;17.75;16.95;;;;;;;-141.02;73.65;41676.59;5114230;28;20197;-63
2023/08/31 07:32:04;;;;;;;18.15;17.35;;;;;;;-141.02;72.87;41780.25;5114095;28;20311;-58
2023/08/31 07:34:31;;;;;;;18.23;17.42;;;;;;;-141.02;70.88;41676.59;5114157;28;20225;-58
2023/08/31 07:36:58;;;;;;;18.02;17.23;;;;;;;-141.02;71.15;41841.66;5114382;28;20193;-59
2023/08/31 07:39:25;;;;;;;18.65;17.85;;;;;;;-141.02;70.06;41801.34;5114370;28;20280;-58
2023/08/31 07:41:54;;;;;;;18.77;17.98;;;;;;;-141.02;68.64;41841.66;5114305;28;20579;-66
2023/08/31 07:44:21;;;;;;;18.83;18.00;;;;;;;-141.02;69.09;41872.38;5114223;28;20577;-58
2023/08/31 07:46:48;;;;;;;18.98;18.17;;;;;;;-141.02;66.30;41899.22;5114219;28;20284;-58
2023/08/31 07:49:16;;;;;;;18.70;17.90;;;;;;;-141.02;65.67;41941.44;5114174;28;20224;-61
2023/08/31 07:51:43;;;;;;;19.38;18.58;;;;;;;-141.02;66.51;41968.31;5114085;28;20256;-59
2023/08/31 07:54:10;;;;;;;19.90;19.00;;;;;;;-141.02;65.68;41972.16;5114087;28;20197;-66
2023/08/31 07:56:40;;;;;;;20.13;19.23;;;;;;;-141.02;65.81;42043.19;5114023;28;20231;-66
2023/08/31 07:59:08;;;;;;;19.25;18.35;;;;;;;-141.02;65.48;42029.75;5113643;28;20204;-60
2023/08/31 08:01:35;;;;;;;19.52;18.63;;;;;;;-141.02;64.25;42091.16;5113967;28;20622;-66
2023/08/31 08:04:01;;;;;;;19.67;18.77;;;;;;;-141.02;63.40;42123.78;5113603;28;20189;-66
2023/08/31 08:06:30;;;;;;;18.48;17.67;;;;;;;-141.02;63.87;42121.88;5113767;28;20192;-58
2023/08/31 08:08:57;;;;;;;19.05;18.15;;;;;;;-141.02;61.11;42190.97;5113464;28;20241;-58
2023/08/31 08:11:24;;;;;;;18.60;17.80;;;;;;;-141.02;61.95;42183.28;5113152;28;20204;-58
2023/08/31 08:13:51;;;;;;;18.85;17.95;;;;;;;-141.02;62.72;42096.91;5113300;28;20239;-58
2023/08/31 08:16:18;;;;;;;18.58;17.67;;;;;;;-141.02;61.95;42133.38;5113268;28;20585;-58
2023/08/31 08:18:45;;;;;;;19.02;18.10;;;;;;;-141.02;61.32;42137.22;5113115;28;20263;-65
2023/08/31 08:21:12;;;;;;;19.13;18.13;;;;;;;-141.02;61.75;42137.22;5113266;28;20189;-59
2023/08/31 08:23:40;;;;;;;18.83;17.92;;;;;;;-141.02;60.91;42148.75;5113185;28;20201;-59
2023/08/31 08:26:07;;;;;;;18.73;17.83;;;;;;;-141.02;60.47;42091.16;5113105;28;20288;-58
2023/08/31 08:28:34;;;;;;;18.85;17.95;;;;;;;-141.02;62.34;42217.84;5113082;28;20653;-65
2023/08/31 08:31:03;;;;;;;18.67;17.77;;;;;;;-141.02;62.30;42156.41;5112997;28;20279;-58
2023/08/31 08:33:29;;;;;;;18.15;17.25;;;;;;;-141.02;61.55;42248.53;5113238;28;20608;-59
2023/08/31 08:35:57;;;;;;;18.90;17.92;;;;;;;-141.02;61.70;42294.63;5112915;28;20284;-58
2023/08/31 08:38:24;;;;;;;18.60;17.70;;;;;;;-141.02;62.38;42329.16;5112953;28;20708;-58
2023/08/31 08:40:53;;;;;;;18.10;17.20;;;;;;;-141.02;61.22;42290.78;5113265;28;20297;-66
2023/08/31 08:43:25;;;;;;;19.00;18.00;;;;;;;-141.02;59.55;42267.75;5112850;28;20694;-61
2023/08/31 08:45:53;;;;;;;18.52;17.60;;;;;;;-141.02;58.27;42202.47;5112900;28;20223;-62
2023/08/31 08:48:21;;;;;;;18.45;17.55;;;;;;;-141.02;59.57;42304.22;5113039;28;20279;-65
2023/08/31 08:50:49;;;;;;;18.35;17.45;;;;;;;-141.02;59.34;42298.44;5113022;28;20228;-59
2023/08/31 08:53:16;;;;;;;18.38;17.42;;;;;;;-141.02;60.16;42248.53;5112624;28;20228;-59
2023/08/31 08:55:44;;;;;;;18.27;17.38;;;;;;;-141.02;60.22;42321.47;5113039;28;20289;-58
2023/08/31 08:58:12;;;;;;;18.02;17.10;;;;;;;-141.02;60.27;42325.31;5112612;28;20193;-63
2023/08/31 09:00:42;;;;;;;18.15;17.15;;;;;;;-141.02;58.89;42313.81;5112828;28;20221;-59
2023/08/31 09:03:09;;;;;;;17.95;17.05;;;;;;;-141.02;59.58;42329.16;5112856;28;20193;-59
2023/08/31 09:05:36;;;;;;;17.80;16.90;;;;;;;-141.02;58.33;42309.97;5112522;28;20246;-68
2023/08/31 09:08:09;;;;;;;17.75;16.85;;;;;;;-141.02;57.66;42344.53;5112848;28;20219;-58
2023/08/31 09:10:40;;;;;;;18.10;17.20;;;;;;;-141.02;57.89;42321.47;5112500;28;20185;-59
2023/08/31 09:13:09;;;;;;;17.70;16.80;;;;;;;-141.02;56.76;42340.69;5112759;28;20304;-59
2023/08/31 09:15:45;;;;;;;18.27;17.27;;;;;;;-141.02;57.04;42352.19;5112864;28;20201;-58
2023/08/31 09:18:16;;;;;;;17.92;17.02;;;;;;;-141.02;57.89;42217.84;5112264;28;20256;-58
2023/08/31 09:20:45;;;;;;;17.83;16.92;;;;;;;-141.02;59.40;42405.94;5112328;28;20204;-59
2023/08/31 09:23:12;;;;;;;51.20;48.08;;;;;;;-141.02;58.16;42381.00;5113755;28;20201;-58
2023/08/31 09:25:43;;;;;;;17.88;16.98;;;;;;;-141.02;56.29;42369.47;5116896;28;20276;-59
2023/08/31 09:28:10;;;;;;;17.77;16.88;;;;;;;-141.02;56.61;42382.91;5116575;28;20185;-59
2023/08/31 09:30:38;;;;;;;17.67;16.77;;;;;;;-141.02;54.49;42381.00;5116563;28;20216;-58
2023/08/31 09:33:08;;;;;;;17.88;16.98;;;;;;;-141.02;54.01;42381.00;5116371;28;20220;-58
2023/08/31 09:35:39;;;;;;;17.40;16.50;;;;;;;-141.02;55.19;42434.72;5116774;28;20204;-67
2023/08/31 09:38:09;;;;;;;17.77;16.88;;;;;;;-141.02;54.19;42413.63;5116484;27;20189;-59
2023/08/31 09:40:36;;;;;;;17.73;16.83;;;;;;;-141.02;53.47;42421.28;5116680;28;20201;-60
2023/08/31 09:43:03;;;;;;;17.77;16.88;;;;;;;-141.02;52.59;42455.84;5116341;28;20283;-58
2023/08/31 09:45:32;;;;;;;17.77;16.88;;;;;;;-141.02;52.89;42486.56;5116319;28;20701;-58
2023/08/31 09:48:01;;;;;;;17.75;16.85;;;;;;;-141.02;53.28;42457.75;5116202;28;20193;-62
2023/08/31 09:50:30;;;;;;;17.88;16.98;;;;;;;-141.02;52.68;42444.34;5116489;28;20197;-58
2023/08/31 09:53:02;;;;;;;17.55;16.65;;;;;;;-141.02;54.25;42463.53;5116134;28;20229;-67
2023/08/31 09:55:30;;;;;;;17.63;16.73;;;;;;;-141.02;52.90;42459.69;5116369;28;20213;-66
2023/08/31 09:57:59;;;;;;;17.23;16.33;;;;;;;-141.02;53.14;42482.72;5116339;28;20621;-66
2023/08/31 10:00:27;;;;;;;17.77;16.88;;;;;;;-141.02;53.17;42517.28;5115937;28;20280;-58
2023/08/31 10:02:55;;;;;;;17.67;16.70;;;;;;;-141.02;52.27;42292.69;5116282;28;20284;-58
2023/08/31 10:05:23;;;;;;;17.67;16.77;;;;;;;-141.02;53.63;42225.50;5116225;28;20272;-59
2023/08/31 10:07:51;;;;;;;17.30;16.40;;;;;;;-141.02;53.60;42559.50;5115770;28;20200;-59
2023/08/31 10:10:20;;;;;;;17.50;16.60;;;;;;;-141.02;52.29;42548.00;5115796;28;20306;-58
2023/08/31 10:12:50;;;;;;;17.33;16.42;;;;;;;-141.02;53.86;42572.94;5115902;27;20220;-58
2023/08/31 10:15:17;;;;;;;17.52;16.63;;;;;;;-141.02;52.26;42524.94;5115978;28;20204;-59
2023/08/31 10:17:45;;;;;;;18.08;17.17;;;;;;;-141.02;50.13;42544.16;5115555;28;20323;-58
2023/08/31 10:20:14;;;;;;;18.45;17.45;;;;;;;-141.02;50.45;42302.28;5115591;28;20237;-58
2023/08/31 10:22:41;;;;;;;18.30;17.30;;;;;;;-141.02;50.68;42356.03;5115797;28;20200;-59
2023/08/31 10:25:11;;;;;;;18.08;17.17;;;;;;;-141.02;51.26;42398.25;5115462;28;20211;-59
2023/08/31 10:27:40;;;;;;;17.45;16.55;;;;;;;-141.02;51.60;42423.22;5115754;28;20597;-58
2023/08/31 10:30:27;;;;;;;17.40;16.50;;;;;;;-141.02;53.63;42467.38;5115664;28;20559;-58
2023/08/31 10:33:22;;;;;;;17.80;16.90;;;;;;;-141.02;53.95;42536.47;5115308;28;20205;-59
2023/08/31 10:35:51;;;;;;;18.08;17.17;;;;;;;-141.02;54.09;42501.91;5114871;28;20189;-59
2023/08/31 10:38:25;;;;;;;17.75;16.85;;;;;;;-141.02;53.48;42532.63;5115249;28;20240;-58
2023/08/31 10:41:20;;;;;;;17.50;16.70;;;;;;;-141.02;52.96;42517.28;5115230;28;20184;-58
2023/08/31 10:43:50;;;;;;;18.00;17.00;;;;;;;-141.02;53.38;42597.91;5115136;28;20602;-58
2023/08/31 10:46:31;;;;;;;17.95;17.05;;;;;;;-141.02;53.01;42411.69;5115046;28;20284;-68
2023/08/31 10:48:59;;;;;;;17.70;16.80;;;;;;;-141.02;52.62;42432.81;5115443;28;20217;-61
2023/08/31 10:51:28;;;;;;;17.30;16.40;;;;;;;-141.02;54.28;42444.34;5115301;28;20250;-66
2023/08/31 10:54:10;;;;;;;17.30;16.40;;;;;;;-141.02;54.50;42417.47;5115138;28;20225;-66
2023/08/31 10:56:55;;;;;;;17.55;16.65;;;;;;;-141.02;55.11;42513.44;5115197;28;20201;-59
2023/08/31 10:59:23;;;;;;;17.92;16.98;;;;;;;-141.02;55.43;42628.63;5114839;28;20665;-59
2023/08/31 11:01:53;;;;;;;17.70;16.80;;;;;;;-141.02;54.62;42448.16;5114762;28;20232;-59
2023/08/31 11:04:21;;;;;;;17.73;16.83;;;;;;;-141.02;53.77;42440.50;5114985;28;20204;-58
2023/08/31 11:06:48;;;;;;;17.60;16.70;;;;;;;-141.02;53.65;42352.19;5114643;28;20674;-59
2023/08/31 11:09:20;;;;;;;17.85;16.95;;;;;;;-141.02;53.96;42377.16;5114629;28;20189;-58
2023/08/31 11:11:48;;;;;;;17.92;17.02;;;;;;;-141.02;55.77;42428.97;5114975;28;20189;-65
2023/08/31 11:14:16;;;;;;;17.48;16.58;;;;;;;-141.02;57.76;42452.00;5114434;28;20719;-59
2023/08/31 11:16:45;;;;;;;17.50;16.60;;;;;;;-141.02;57.80;42450.09;5114507;28;20200;-66
2023/08/31 11:19:12;;;;;;;17.55;16.65;;;;;;;-141.02;56.70;42452.00;5114818;28;20189;-67
2023/08/31 11:21:39;;;;;;;18.17;17.27;;;;;;;-141.02;56.14;42496.16;5114700;28;20285;-59
2023/08/31 11:24:06;;;;;;;17.60;16.70;;;;;;;-141.02;56.01;42490.41;5114591;28;20232;-58